createdAt,value
2018-11-27T00:04:00.000Z,3.6
2018-11-27T00:09:00.000Z,3.6
2018-11-27T00:14:00.000Z,3.5
2018-11-27T00:19:00.000Z,3.6
2018-11-27T00:24:00.000Z,3.6
2018-11-27T00:29:00.000Z,3.6
2018-11-27T00:34:00.000Z,3.6
2018-11-27T00:39:00.000Z,3.6
2018-11-27T00:44:00.000Z,3.6
2018-11-27T00:49:00.000Z,3.6
2018-11-27T00:54:00.000Z,3.6
2018-11-27T00:59:00.000Z,3.7
2018-11-27T01:04:00.000Z,3.7
2018-11-27T01:09:00.000Z,3.8
2018-11-27T01:14:00.000Z,3.8
2018-11-27T01:19:00.000Z,3.7
2018-11-27T01:24:00.000Z,3.7
2018-11-27T01:29:00.000Z,3.7
2018-11-27T01:34:00.000Z,3.6
2018-11-27T01:39:00.000Z,3.6
2018-11-27T01:44:00.000Z,3.6
2018-11-27T01:49:00.000Z,3.6
2018-11-27T01:54:00.000Z,3.6
2018-11-27T01:59:00.000Z,3.6
2018-11-27T02:04:00.000Z,3.6
2018-11-27T02:09:00.000Z,3.6
2018-11-27T02:14:00.000Z,3.5
2018-11-27T02:19:00.000Z,3.4
2018-11-27T02:24:00.000Z,3.3
2018-11-27T02:29:00.000Z,3.2
2018-11-27T02:34:00.000Z,3.2
2018-11-27T02:39:00.000Z,3.2
2018-11-27T02:44:00.000Z,3.1
2018-11-27T02:49:00.000Z,3.0
2018-11-27T02:54:00.000Z,3.0
2018-11-27T02:59:00.000Z,3.0
2018-11-27T03:04:00.000Z,3.0
2018-11-27T03:09:00.000Z,2.9
2018-11-27T03:14:00.000Z,2.8
2018-11-27T03:19:00.000Z,2.8
2018-11-27T03:24:00.000Z,2.8
2018-11-27T03:29:00.000Z,2.8
2018-11-27T03:34:00.000Z,2.8
2018-11-27T03:39:00.000Z,2.7
2018-11-27T03:44:00.000Z,2.6
2018-11-27T03:49:00.000Z,2.6
2018-11-27T03:54:00.000Z,2.5
2018-11-27T03:59:00.000Z,2.5
2018-11-27T04:04:00.000Z,2.5
2018-11-27T04:09:00.000Z,2.5
2018-11-27T04:14:00.000Z,2.5
2018-11-27T04:19:00.000Z,2.5
2018-11-27T04:24:00.000Z,2.5
2018-11-27T04:29:00.000Z,2.5
2018-11-27T04:34:00.000Z,2.5
2018-11-27T04:39:00.000Z,2.4
2018-11-27T04:44:00.000Z,2.4
2018-11-27T04:50:00.000Z,2.3
2018-11-27T04:55:00.000Z,2.3
2018-11-27T05:00:00.000Z,2.4
2018-11-27T05:05:00.000Z,2.4
2018-11-27T05:10:00.000Z,2.5
2018-11-27T05:15:00.000Z,2.5
2018-11-27T05:20:00.000Z,2.5
2018-11-27T05:25:00.000Z,2.5
2018-11-27T05:30:00.000Z,2.5
2018-11-27T05:35:00.000Z,2.5
2018-11-27T05:40:00.000Z,2.6
2018-11-27T05:45:00.000Z,2.6
2018-11-27T05:50:00.000Z,2.5
2018-11-27T05:55:00.000Z,2.4
2018-11-27T06:00:00.000Z,2.3
2018-11-27T06:05:00.000Z,2.3
2018-11-27T06:10:00.000Z,2.3
2018-11-27T06:15:00.000Z,2.3
2018-11-27T06:20:00.000Z,2.3
2018-11-27T06:25:00.000Z,2.3
2018-11-27T06:30:00.000Z,2.2
2018-11-27T06:35:00.000Z,2.2
2018-11-27T06:40:00.000Z,2.2
2018-11-27T06:45:00.000Z,2.2
2018-11-27T06:50:00.000Z,2.1
2018-11-27T06:55:00.000Z,2.1
2018-11-27T07:00:00.000Z,2.0
2018-11-27T07:05:00.000Z,2.0
2018-11-27T07:10:00.000Z,2.0
2018-11-27T07:15:00.000Z,1.9
2018-11-27T07:20:00.000Z,1.8
2018-11-27T07:25:00.000Z,1.8
2018-11-27T07:30:00.000Z,1.7
2018-11-27T07:35:00.000Z,1.7
2018-11-27T07:40:00.000Z,1.7
2018-11-27T07:45:00.000Z,1.7
2018-11-27T07:50:00.000Z,1.7
2018-11-27T07:55:00.000Z,1.7
2018-11-27T08:00:00.000Z,1.6
2018-11-27T08:05:00.000Z,1.6
2018-11-27T08:10:00.000Z,1.5
2018-11-27T08:15:00.000Z,1.4
2018-11-27T08:20:00.000Z,1.4
2018-11-27T08:25:00.000Z,1.4
2018-11-27T08:30:00.000Z,1.3
2018-11-27T08:35:00.000Z,1.3
2018-11-27T08:40:00.000Z,1.3
2018-11-27T08:45:00.000Z,1.3
2018-11-27T08:50:00.000Z,1.4
2018-11-27T08:55:00.000Z,1.4
2018-11-27T09:00:00.000Z,1.5
2018-11-27T09:05:00.000Z,1.6
2018-11-27T09:10:00.000Z,1.6
2018-11-27T09:15:00.000Z,1.7
2018-11-27T09:20:00.000Z,1.7
2018-11-27T09:25:00.000Z,1.8
2018-11-27T09:30:00.000Z,1.8
2018-11-27T09:35:00.000Z,1.9
2018-11-27T09:40:00.000Z,1.9
2018-11-27T09:45:00.000Z,2.0
2018-11-27T09:50:00.000Z,2.1
2018-11-27T09:55:00.000Z,2.1
2018-11-27T10:00:00.000Z,2.1
2018-11-27T10:05:00.000Z,2.1
2018-11-27T10:10:00.000Z,2.1
2018-11-27T10:15:00.000Z,2.1
2018-11-27T10:20:00.000Z,2.1
2018-11-27T10:25:00.000Z,2.2
2018-11-27T10:30:00.000Z,2.2
2018-11-27T10:35:00.000Z,2.2
2018-11-27T10:40:00.000Z,2.2
2018-11-27T10:45:00.000Z,2.2
2018-11-27T10:50:00.000Z,2.3
2018-11-27T10:55:00.000Z,2.2
2018-11-27T11:00:00.000Z,2.2
2018-11-27T11:06:00.000Z,2.1
2018-11-27T11:11:00.000Z,2.1
2018-11-27T11:16:00.000Z,2.0
2018-11-27T11:21:00.000Z,2.0
2018-11-27T11:26:00.000Z,2.0
2018-11-27T11:31:00.000Z,2.0
2018-11-27T11:36:00.000Z,2.0
2018-11-27T11:41:00.000Z,2.0
2018-11-27T11:46:00.000Z,2.0
2018-11-27T11:51:00.000Z,2.1
2018-11-27T11:56:00.000Z,2.1
2018-11-27T12:01:00.000Z,2.1
2018-11-27T12:06:00.000Z,2.1
2018-11-27T12:11:00.000Z,2.1
2018-11-27T12:16:00.000Z,2.1
2018-11-27T12:21:00.000Z,2.1
2018-11-27T12:26:00.000Z,2.1
2018-11-27T12:31:00.000Z,2.1
2018-11-27T12:36:00.000Z,2.1
2018-11-27T12:41:00.000Z,2.1
2018-11-27T12:46:00.000Z,2.1
2018-11-27T12:51:00.000Z,2.2
2018-11-27T12:56:00.000Z,2.2
2018-11-27T13:01:00.000Z,2.2
2018-11-27T13:06:00.000Z,2.2
2018-11-27T13:11:00.000Z,2.2
2018-11-27T13:16:00.000Z,2.3
2018-11-27T13:21:00.000Z,2.2
2018-11-27T13:26:00.000Z,2.2
2018-11-27T13:31:00.000Z,2.2
2018-11-27T13:36:00.000Z,2.1
2018-11-27T13:41:00.000Z,2.1
2018-11-27T13:46:00.000Z,2.1
2018-11-27T13:51:00.000Z,2.0
2018-11-27T13:56:00.000Z,2.0
2018-11-27T14:01:00.000Z,2.0
2018-11-27T14:06:00.000Z,2.0
2018-11-27T14:11:00.000Z,2.0
2018-11-27T14:16:00.000Z,2.1
2018-11-27T14:21:00.000Z,2.1
2018-11-27T14:26:00.000Z,2.0
2018-11-27T14:31:00.000Z,2.0
2018-11-27T14:36:00.000Z,2.0
2018-11-27T14:41:00.000Z,2.0
2018-11-27T14:46:00.000Z,2.1
2018-11-27T14:51:00.000Z,2.1
2018-11-27T14:56:00.000Z,2.0
2018-11-27T15:01:00.000Z,2.0
2018-11-27T15:06:00.000Z,2.0
2018-11-27T15:11:00.000Z,2.0
2018-11-27T15:16:00.000Z,2.0
2018-11-27T15:21:00.000Z,2.0
2018-11-27T15:26:00.000Z,2.0
2018-11-27T15:31:00.000Z,2.0
2018-11-27T15:36:00.000Z,2.0
2018-11-27T15:41:00.000Z,2.1
2018-11-27T15:46:00.000Z,2.1
2018-11-27T15:51:00.000Z,2.1
2018-11-27T15:56:00.000Z,2.1
2018-11-27T16:01:00.000Z,2.1
2018-11-27T16:06:00.000Z,2.1
2018-11-27T16:11:00.000Z,2.1
2018-11-27T16:16:00.000Z,2.1
2018-11-27T16:21:00.000Z,2.0
2018-11-27T16:26:00.000Z,2.0
2018-11-27T16:31:00.000Z,2.0
2018-11-27T16:36:00.000Z,2.0
2018-11-27T16:41:00.000Z,2.0
2018-11-27T16:46:00.000Z,2.0
2018-11-27T16:51:00.000Z,2.0
2018-11-27T16:56:00.000Z,2.0
2018-11-27T17:01:00.000Z,2.0
2018-11-27T17:06:00.000Z,2.0
2018-11-27T17:12:00.000Z,2.0
2018-11-27T17:17:00.000Z,2.0
2018-11-27T17:22:00.000Z,2.0
2018-11-27T17:27:00.000Z,1.9
2018-11-27T17:32:00.000Z,1.8
2018-11-27T17:37:00.000Z,1.8
2018-11-27T17:42:00.000Z,1.7
2018-11-27T17:47:00.000Z,1.7
2018-11-27T17:52:00.000Z,1.6
2018-11-27T17:57:00.000Z,1.5
2018-11-27T18:02:00.000Z,1.4
2018-11-27T18:07:00.000Z,1.4
2018-11-27T18:12:00.000Z,1.3
2018-11-27T18:17:00.000Z,1.3
2018-11-27T18:22:00.000Z,1.3
2018-11-27T18:27:00.000Z,1.2
2018-11-27T18:32:00.000Z,1.2
2018-11-27T18:37:00.000Z,1.2
2018-11-27T18:42:00.000Z,1.1
2018-11-27T18:47:00.000Z,1.0
2018-11-27T18:52:00.000Z,1.1
2018-11-27T18:57:00.000Z,1.0
2018-11-27T19:02:00.000Z,1.0
2018-11-27T19:07:00.000Z,0.9
2018-11-27T19:12:00.000Z,1.0
2018-11-27T19:17:00.000Z,1.0
2018-11-27T19:22:00.000Z,1.0
2018-11-27T19:27:00.000Z,0.9
2018-11-27T19:32:00.000Z,0.9
2018-11-27T19:37:00.000Z,0.9
2018-11-27T19:42:00.000Z,0.9
2018-11-27T19:47:00.000Z,0.9
2018-11-27T19:52:00.000Z,1.0
2018-11-27T19:57:00.000Z,1.0
2018-11-27T20:02:00.000Z,1.0
2018-11-27T20:07:00.000Z,1.0
2018-11-27T20:12:00.000Z,1.0
2018-11-27T20:17:00.000Z,0.9
2018-11-27T20:22:00.000Z,0.9
2018-11-27T20:27:00.000Z,0.9
2018-11-27T20:32:00.000Z,0.9
2018-11-27T20:37:00.000Z,0.9
2018-11-27T20:42:00.000Z,0.8
2018-11-27T20:47:00.000Z,0.8
2018-11-27T20:52:00.000Z,0.8
2018-11-27T20:57:00.000Z,0.8
2018-11-27T21:02:00.000Z,0.7
2018-11-27T21:07:00.000Z,0.7
2018-11-27T21:12:00.000Z,0.6
2018-11-27T21:17:00.000Z,0.6
2018-11-27T21:22:00.000Z,0.6
2018-11-27T21:27:00.000Z,0.5
2018-11-27T21:32:00.000Z,0.5
2018-11-27T21:37:00.000Z,0.5
2018-11-27T21:42:00.000Z,0.5
2018-11-27T21:47:00.000Z,0.5
2018-11-27T21:52:00.000Z,0.5
2018-11-27T21:57:00.000Z,0.5
2018-11-27T22:02:00.000Z,0.5
2018-11-27T22:07:00.000Z,0.5
2018-11-27T22:12:00.000Z,0.5
2018-11-27T22:17:00.000Z,0.5
2018-11-27T22:22:00.000Z,0.5
2018-11-27T22:27:00.000Z,0.5
2018-11-27T22:32:00.000Z,0.5
2018-11-27T22:37:00.000Z,0.5
2018-11-27T22:42:00.000Z,0.5
2018-11-27T22:47:00.000Z,0.5
2018-11-27T22:52:00.000Z,0.5
2018-11-27T22:57:00.000Z,0.5
2018-11-27T23:02:00.000Z,0.4
2018-11-27T23:08:00.000Z,0.4
2018-11-27T23:13:00.000Z,0.4
2018-11-27T23:18:00.000Z,0.3
2018-11-27T23:23:00.000Z,0.3
2018-11-27T23:28:00.000Z,0.3
2018-11-27T23:33:00.000Z,0.3
2018-11-27T23:38:00.000Z,0.2
2018-11-27T23:43:00.000Z,0.2
2018-11-27T23:48:00.000Z,0.2
2018-11-27T23:53:00.000Z,0.2
2018-11-27T23:58:00.000Z,0.1
